VVPB/HUI METAR and TAF weather

Enter ICAO airport designator
Station Type Date Time Source
VVPB METAR 2019/08/21 22:30 UTC NOAA

VVPB 212230Z 24003KT 9999 FEW020 SCT070 29/23 Q1006 NOSIG


Station Type Date Time Source
VVPB Decoded METAR 2019/08/21 22:30 UTC NOAA

Station name not available
Aug 21, 2019 - 06:30 PM EDT / 2019.08.21 2230 UTC
Wind: from the WSW (240 degrees) at 3 MPH (3 KT):0
Visibility: greater than 7 mile(s):0
Sky conditions: partly cloudy
Temperature: 84 F (29 C)
Dew Point: 73 F (23 C)
Relative Humidity: 70%
Pressure (altimeter): 29.71 in. Hg (1006 hPa)
ob: VVPB 212230Z 24003KT 9999 FEW020 SCT070 29/23 Q1006 NOSIG
cycle: 22

Station Type Date Time Source
VVPB TAF 2019/08/21 18:00 UTC NOAA

TAF VVPB 211700Z 2118/2218 20004KT 9999 FEW020 SCT060 PROB30
TEMPO 2118/2119 4000 TSRA SCT015 FEW017CB BKN060
BECMG 2204/2205 07010KT PROB40
TEMPO 2208/2212 4000 TSRA SCT013 FEW017CB BKN060
BECMG 2212/2213 20005KT

Example: see airport list